Time;durP1;ratioP1;P1;durP2;ratioP2;P2;SDS_P1;SDS_P2;PMS_P1;PMS_P2;Temp;Humidity;BMP_temperature;BMP_pressure;BME280_temperature;BME280_humidity;BME280_pressure;Samples;Min_cycle;Max_cycle;Signal;HPM_P1;HPM_P2
2022/03/02 00:02:03;;;;;;;9.98;4.97;;;;;;;;;;5048836;28;20112;-53
2022/03/02 00:04:29;;;;;;;5.78;3.60;;;;;;;;;;5048667;28;20032;-52
2022/03/02 00:06:55;;;;;;;6.05;3.70;;;;;;;;;;5048803;28;20021;-51
2022/03/02 00:09:21;;;;;;;6.85;4.00;;;;;;;;;;5048264;28;20033;-51
2022/03/02 00:11:48;;;;;;;8.52;3.92;;;;;;;;;;5048764;28;20329;-52
2022/03/02 00:14:14;;;;;;;8.98;5.18;;;;;;;;;;5047871;28;20033;-49
2022/03/02 00:16:41;;;;;;;7.95;3.92;;;;;;;;;;5047954;28;20511;-52
2022/03/02 00:19:09;;;;;;;7.95;3.72;;;;;;;;;;5048094;28;20037;-49
2022/03/02 00:21:35;;;;;;;7.30;3.58;;;;;;;;;;5046995;28;20032;-48
2022/03/02 00:24:03;;;;;;;5.63;3.22;;;;;;;;;;5047780;28;20033;-49
2022/03/02 00:26:30;;;;;;;5.97;3.58;;;;;;;;;;5046713;28;20017;-50
2022/03/02 00:28:57;;;;;;;7.35;3.65;;;;;;;;;;5047242;28;20033;-50
2022/03/02 00:31:24;;;;;;;5.95;3.50;;;;;;;;;;5046860;28;20032;-50
2022/03/02 00:33:52;;;;;;;5.45;3.10;;;;;;;;;;5047219;28;20029;-49
2022/03/02 00:36:18;;;;;;;5.55;3.00;;;;;;;;;;5046844;28;20025;-50
2022/03/02 00:38:45;;;;;;;5.50;2.97;;;;;;;;;;5047095;28;20565;-52
2022/03/02 00:41:11;;;;;;;5.07;3.10;;;;;;;;;;5047272;28;20404;-49
2022/03/02 00:43:37;;;;;;;4.60;3.08;;;;;;;;;;5046779;28;20031;-53
2022/03/02 00:46:04;;;;;;;7.25;3.42;;;;;;;;;;5045967;28;20496;-50
2022/03/02 00:48:30;;;;;;;4.30;2.70;;;;;;;;;;5046870;28;20467;-49
2022/03/02 00:50:56;;;;;;;14.88;5.32;;;;;;;;;;5046711;28;20516;-49
2022/03/02 00:53:22;;;;;;;10.07;5.15;;;;;;;;;;5045258;28;20102;-49
2022/03/02 00:55:49;;;;;;;12.25;5.07;;;;;;;;;;5047011;28;20028;-49
2022/03/02 00:58:17;;;;;;;7.82;4.13;;;;;;;;;;5045763;28;20436;-52
2022/03/02 01:00:43;;;;;;;9.85;3.88;;;;;;;;;;5049973;28;20404;-53
2022/03/02 01:03:09;;;;;;;8.13;4.30;;;;;;;;;;5089158;28;20093;-51
2022/03/02 01:05:35;;;;;;;10.35;4.30;;;;;;;;;;5088933;28;20028;-50
2022/03/02 01:08:01;;;;;;;10.43;4.53;;;;;;;;;;5088977;28;20027;-53
2022/03/02 01:10:28;;;;;;;10.05;3.58;;;;;;;;;;5088685;28;20066;-52
2022/03/02 01:12:54;;;;;;;6.70;4.15;;;;;;;;;;5033809;28;1117516;-52
2022/03/02 01:15:20;;;;;;;6.88;4.18;;;;;;;;;;5051335;28;20036;-52
2022/03/02 01:17:46;;;;;;;8.02;4.32;;;;;;;;;;5049485;28;20057;-53
2022/03/02 01:20:13;;;;;;;7.70;4.28;;;;;;;;;;5049652;28;20025;-50
2022/03/02 01:22:39;;;;;;;8.75;4.03;;;;;;;;;;5048991;28;20749;-51
2022/03/02 01:25:07;;;;;;;8.70;4.47;;;;;;;;;;5049264;28;20029;-52
2022/03/02 01:27:33;;;;;;;11.48;5.10;;;;;;;;;;5049239;28;20029;-51
2022/03/02 01:29:59;;;;;;;9.93;4.97;;;;;;;;;;5050994;28;20551;-51
2022/03/02 01:32:25;;;;;;;9.80;4.93;;;;;;;;;;5049163;28;20403;-52
2022/03/02 01:34:51;;;;;;;12.23;4.93;;;;;;;;;;5049323;28;20025;-52
2022/03/02 01:37:17;;;;;;;10.43;4.20;;;;;;;;;;5049070;28;20120;-52
2022/03/02 01:39:43;;;;;;;10.40;4.55;;;;;;;;;;5048544;28;20029;-54
2022/03/02 01:42:10;;;;;;;10.70;5.82;;;;;;;;;;5049190;28;20692;-52
2022/03/02 01:44:37;;;;;;;10.98;4.97;;;;;;;;;;5052366;28;20557;-53
2022/03/02 01:47:04;;;;;;;12.18;4.47;;;;;;;;;;5069145;28;20046;-53
2022/03/02 01:49:30;;;;;;;13.15;6.13;;;;;;;;;;5068968;28;20029;-54
2022/03/02 01:51:56;;;;;;;10.30;4.22;;;;;;;;;;5068971;28;20016;-53
2022/03/02 01:54:22;;;;;;;7.07;4.15;;;;;;;;;;5068686;28;20028;-53
2022/03/02 01:56:49;;;;;;;8.15;4.80;;;;;;;;;;5068993;28;20033;-52
2022/03/02 01:59:15;;;;;;;11.88;4.60;;;;;;;;;;5067272;28;20029;-53
2022/03/02 02:01:41;;;;;;;15.63;5.75;;;;;;;;;;5069169;28;20719;-50
2022/03/02 02:04:08;;;;;;;11.35;5.10;;;;;;;;;;5067394;28;20032;-54
2022/03/02 02:06:34;;;;;;;8.40;4.47;;;;;;;;;;5068423;28;20612;-52
2022/03/02 02:09:00;;;;;;;10.23;4.75;;;;;;;;;;5068510;28;20959;-51
2022/03/02 02:11:26;;;;;;;9.70;4.88;;;;;;;;;;5067262;28;20760;-51
2022/03/02 02:13:52;;;;;;;8.93;4.20;;;;;;;;;;5067781;28;20040;-53
2022/03/02 02:16:22;;;;;;;10.55;5.63;;;;;;;;;;5068359;28;20415;-52
2022/03/02 02:18:50;;;;;;;12.65;5.68;;;;;;;;;;5068680;28;20071;-52
2022/03/02 02:21:16;;;;;;;13.82;5.97;;;;;;;;;;5067953;28;20044;-49
2022/03/02 02:23:43;;;;;;;13.30;5.40;;;;;;;;;;5064139;28;20058;-49
2022/03/02 02:26:09;;;;;;;10.43;5.30;;;;;;;;;;5048522;28;20462;-51
2022/03/02 02:28:36;;;;;;;11.43;5.38;;;;;;;;;;5048373;28;21145;-52
2022/03/02 02:31:02;;;;;;;8.95;4.63;;;;;;;;;;5048044;28;20652;-51
2022/03/02 02:33:29;;;;;;;12.88;5.78;;;;;;;;;;5048274;28;20079;-53
2022/03/02 02:35:55;;;;;;;12.95;5.85;;;;;;;;;;5048388;28;20158;-53
2022/03/02 02:38:22;;;;;;;16.75;6.47;;;;;;;;;;5050688;28;20033;-50
2022/03/02 02:40:50;;;;;;;16.17;7.10;;;;;;;;;;5066936;28;20032;-53
2022/03/02 02:43:17;;;;;;;16.17;6.55;;;;;;;;;;5067912;28;20094;-53
2022/03/02 02:45:43;;;;;;;15.43;7.03;;;;;;;;;;5068490;28;20499;-54
2022/03/02 02:48:10;;;;;;;15.13;6.22;;;;;;;;;;5068386;28;20024;-52
2022/03/02 02:50:36;;;;;;;11.23;5.50;;;;;;;;;;5067711;28;20025;-53
2022/03/02 02:53:07;;;;;;;11.90;5.57;;;;;;;;;;5066373;28;20057;-51
2022/03/02 02:55:34;;;;;;;9.98;5.30;;;;;;;;;;5067782;28;20020;-51
2022/03/02 02:58:00;;;;;;;9.25;5.15;;;;;;;;;;5067998;28;20051;-49
2022/03/02 03:00:27;;;;;;;11.98;5.32;;;;;;;;;;5067916;28;20017;-52
2022/03/02 03:02:54;;;;;;;10.60;5.65;;;;;;;;;;5068109;28;20020;-53
2022/03/02 03:05:21;;;;;;;13.20;6.35;;;;;;;;;;5067512;28;20466;-49
2022/03/02 03:07:48;;;;;;;19.38;6.32;;;;;;;;;;5066024;28;20519;-51
2022/03/02 03:10:15;;;;;;;18.65;7.10;;;;;;;;;;5068288;28;20032;-52
2022/03/02 03:12:44;;;;;;;13.63;6.00;;;;;;;;;;5068057;28;20040;-53
2022/03/02 03:15:11;;;;;;;13.18;5.43;;;;;;;;;;5068214;28;20110;-53
2022/03/02 03:17:38;;;;;;;15.90;5.97;;;;;;;;;;5067721;28;20594;-53
2022/03/02 03:20:05;;;;;;;11.00;6.32;;;;;;;;;;5067675;28;20028;-49
2022/03/02 03:22:32;;;;;;;16.23;6.30;;;;;;;;;;5065425;28;20383;-51
2022/03/02 03:24:58;;;;;;;15.50;6.18;;;;;;;;;;5067753;28;20068;-50
2022/03/02 03:27:24;;;;;;;15.60;5.93;;;;;;;;;;5067457;28;20044;-51
2022/03/02 03:29:50;;;;;;;9.55;5.82;;;;;;;;;;5067919;28;20038;-53
2022/03/02 03:32:16;;;;;;;12.40;6.07;;;;;;;;;;5067335;28;20523;-53
2022/03/02 03:34:42;;;;;;;12.18;5.68;;;;;;;;;;5068022;28;20054;-51
2022/03/02 03:37:08;;;;;;;11.43;5.70;;;;;;;;;;5065572;28;20029;-52
2022/03/02 03:39:35;;;;;;;16.65;5.95;;;;;;;;;;5067164;28;20032;-51
2022/03/02 03:42:01;;;;;;;17.75;6.68;;;;;;;;;;5067605;28;20032;-52
2022/03/02 03:44:27;;;;;;;12.45;5.80;;;;;;;;;;5067352;28;20024;-53
2022/03/02 03:46:54;;;;;;;14.32;6.53;;;;;;;;;;5067624;28;20097;-52
2022/03/02 03:49:20;;;;;;;12.10;5.85;;;;;;;;;;5067442;28;20495;-52
2022/03/02 03:51:46;;;;;;;11.77;5.57;;;;;;;;;;5065233;28;20028;-53
2022/03/02 03:54:12;;;;;;;11.70;5.68;;;;;;;;;;5067497;28;20063;-52
2022/03/02 03:56:39;;;;;;;16.17;5.97;;;;;;;;;;5067287;28;20028;-51
2022/03/02 03:59:05;;;;;;;11.73;5.25;;;;;;;;;;5067032;28;20486;-52
2022/03/02 04:01:32;;;;;;;13.85;6.18;;;;;;;;;;5066604;28;20028;-55
2022/03/02 04:03:58;;;;;;;9.25;4.85;;;;;;;;;;5070353;28;20403;-56
2022/03/02 04:06:25;;;;;;;14.10;5.90;;;;;;;;;;5068594;28;20544;-56
2022/03/02 04:08:51;;;;;;;14.20;5.55;;;;;;;;;;5070666;28;20048;-56
2022/03/02 04:11:17;;;;;;;12.68;6.05;;;;;;;;;;5070662;28;20025;-55
2022/03/02 04:13:43;;;;;;;9.98;4.85;;;;;;;;;;5069482;28;20408;-56
2022/03/02 04:16:09;;;;;;;12.75;5.85;;;;;;;;;;5064666;28;20498;-56
2022/03/02 04:18:35;;;;;;;12.70;5.80;;;;;;;;;;5050406;28;20060;-56
2022/03/02 04:21:01;;;;;;;10.60;5.47;;;;;;;;;;5050940;28;20025;-56
2022/03/02 04:23:28;;;;;;;14.43;5.72;;;;;;;;;;5050395;28;20477;-55
2022/03/02 04:25:54;;;;;;;12.23;5.32;;;;;;;;;;5050435;28;20021;-56
2022/03/02 04:28:21;;;;;;;12.93;6.15;;;;;;;;;;5063439;28;20036;-56
2022/03/02 04:30:47;;;;;;;12.02;5.10;;;;;;;;;;5070247;28;20024;-56
2022/03/02 04:33:13;;;;;;;11.02;5.30;;;;;;;;;;5070809;28;20064;-56
2022/03/02 04:35:40;;;;;;;10.40;5.65;;;;;;;;;;5070201;28;20499;-56
2022/03/02 04:38:06;;;;;;;8.85;5.28;;;;;;;;;;5068729;28;20043;-55
2022/03/02 04:40:32;;;;;;;11.18;5.05;;;;;;;;;;5070159;28;20062;-56
2022/03/02 04:42:58;;;;;;;11.43;4.43;;;;;;;;;;5070326;28;20451;-56
2022/03/02 04:45:25;;;;;;;12.85;4.95;;;;;;;;;;5070234;28;20031;-55
2022/03/02 04:47:52;;;;;;;12.75;4.95;;;;;;;;;;5070027;28;20035;-56
2022/03/02 04:50:19;;;;;;;9.63;4.93;;;;;;;;;;5052053;28;20480;-56
2022/03/02 04:52:45;;;;;;;10.77;4.57;;;;;;;;;;5049535;28;20037;-56
2022/03/02 04:55:12;;;;;;;8.52;4.35;;;;;;;;;;5050308;28;20112;-56
2022/03/02 04:57:58;;;;;;;9.25;5.05;;;;;;;;;;5049789;28;20033;-56
2022/03/02 05:00:25;;;;;;;9.30;4.68;;;;;;;;;;5050035;28;20036;-56
2022/03/02 05:02:52;;;;;;;9.32;4.38;;;;;;;;;;5049296;28;20021;-56
2022/03/02 05:05:19;;;;;;;6.30;3.67;;;;;;;;;;5069054;28;20527;-56
2022/03/02 05:07:45;;;;;;;7.95;3.47;;;;;;;;;;5069610;28;20556;-56
2022/03/02 05:10:12;;;;;;;10.15;3.60;;;;;;;;;;5070100;28;20483;-56
2022/03/02 05:12:39;;;;;;;7.55;3.08;;;;;;;;;;5069123;28;20068;-56
2022/03/02 05:15:06;;;;;;;5.55;3.03;;;;;;;;;;5068771;28;20034;-56
2022/03/02 05:17:32;;;;;;;5.35;3.05;;;;;;;;;;5069046;28;20035;-56
2022/03/02 05:19:58;;;;;;;9.40;4.30;;;;;;;;;;5067625;28;20035;-56
2022/03/02 05:22:24;;;;;;;9.32;3.40;;;;;;;;;;5069299;28;20063;-56
2022/03/02 05:24:50;;;;;;;6.45;3.85;;;;;;;;;;5069395;28;20052;-54
2022/03/02 05:27:16;;;;;;;9.75;3.92;;;;;;;;;;5069267;28;20399;-56
2022/03/02 05:29:42;;;;;;;7.97;3.90;;;;;;;;;;5069466;28;20029;-56
2022/03/02 05:32:09;;;;;;;10.30;3.80;;;;;;;;;;5069081;28;20433;-56
2022/03/02 05:34:35;;;;;;;8.07;3.50;;;;;;;;;;5067575;28;20228;-56
2022/03/02 05:37:02;;;;;;;9.82;3.72;;;;;;;;;;5069166;28;20033;-56
2022/03/02 05:39:29;;;;;;;6.57;3.38;;;;;;;;;;5068980;28;20036;-56
2022/03/02 05:41:55;;;;;;;6.63;2.85;;;;;;;;;;5069057;28;20419;-59
2022/03/02 05:44:21;;;;;;;5.28;2.90;;;;;;;;;;5069010;28;20197;-56
2022/03/02 05:46:47;;;;;;;5.30;3.00;;;;;;;;;;5067050;28;20104;-56
2022/03/02 05:49:14;;;;;;;5.88;2.80;;;;;;;;;;5060766;28;20021;-56
2022/03/02 05:51:41;;;;;;;7.32;3.35;;;;;;;;;;5048547;28;20114;-56
2022/03/02 05:54:08;;;;;;;4.70;2.92;;;;;;;;;;5048877;28;20039;-56
2022/03/02 05:56:37;;;;;;;6.10;2.58;;;;;;;;;;5048698;28;20046;-56
2022/03/02 05:59:03;;;;;;;5.50;2.47;;;;;;;;;;5048369;28;20182;-56
2022/03/02 06:01:29;;;;;;;5.03;2.80;;;;;;;;;;5048447;28;20021;-56
2022/03/02 06:03:56;;;;;;;5.30;2.58;;;;;;;;;;5048835;28;20103;-56
2022/03/02 06:06:22;;;;;;;7.07;2.92;;;;;;;;;;5048559;28;20025;-57
2022/03/02 06:08:48;;;;;;;4.68;2.50;;;;;;;;;;5048442;28;20613;-56
2022/03/02 06:11:14;;;;;;;6.85;2.78;;;;;;;;;;5048844;28;20031;-56
2022/03/02 06:13:40;;;;;;;8.18;3.50;;;;;;;;;;5053601;28;20040;-56
2022/03/02 06:16:06;;;;;;;5.47;3.13;;;;;;;;;;5058468;28;20033;-56
2022/03/02 06:18:33;;;;;;;8.02;3.17;;;;;;;;;;5063178;28;20036;-56
2022/03/02 06:21:02;;;;;;;6.95;3.40;;;;;;;;;;5066646;28;20017;-56
2022/03/02 06:23:28;;;;;;;6.18;2.80;;;;;;;;;;5048511;28;20601;-56
2022/03/02 06:25:55;;;;;;;6.38;3.28;;;;;;;;;;5048327;28;20021;-56
2022/03/02 06:28:21;;;;;;;6.10;2.80;;;;;;;;;;5058179;28;20082;-56
2022/03/02 06:30:48;;;;;;;5.32;2.30;;;;;;;;;;5060040;28;20035;-56
2022/03/02 06:33:15;;;;;;;4.15;2.72;;;;;;;;;;5051849;28;20035;-56
2022/03/02 06:35:42;;;;;;;5.00;3.22;;;;;;;;;;5051638;28;20448;-56
2022/03/02 06:38:08;;;;;;;4.75;2.72;;;;;;;;;;5064124;28;20075;-56
2022/03/02 06:40:34;;;;;;;3.92;2.17;;;;;;;;;;5068066;28;20487;-56
2022/03/02 06:43:00;;;;;;;3.70;2.33;;;;;;;;;;5065425;28;20032;-56
2022/03/02 06:45:42;;;;;;;4.65;2.60;;;;;;;;;;5057153;28;20054;-56
2022/03/02 06:48:11;;;;;;;4.53;2.10;;;;;;;;;;5073193;28;20024;-56
2022/03/02 06:50:38;;;;;;;6.25;2.42;;;;;;;;;;5053569;28;20020;-56
2022/03/02 06:53:05;;;;;;;3.17;1.83;;;;;;;;;;5057155;28;20124;-56
2022/03/02 06:55:31;;;;;;;4.05;2.60;;;;;;;;;;5065405;28;20097;-56
2022/03/02 06:58:00;;;;;;;4.75;2.75;;;;;;;;;;5066023;28;20028;-56
2022/03/02 07:00:26;;;;;;;2.30;2.00;;;;;;;;;;5067938;28;20024;-56
2022/03/02 07:03:01;;;;;;;5.38;2.60;;;;;;;;;;5067811;28;20032;-56
2022/03/02 07:05:28;;;;;;;4.63;2.50;;;;;;;;;;5060288;28;20044;-56
2022/03/02 07:07:54;;;;;;;4.07;2.85;;;;;;;;;;5046304;28;20068;-56
2022/03/02 07:10:20;;;;;;;4.15;2.45;;;;;;;;;;5046716;28;20064;-55
2022/03/02 07:12:46;;;;;;;4.53;2.65;;;;;;;;;;5046049;28;20253;-56
2022/03/02 07:15:12;;;;;;;6.60;3.03;;;;;;;;;;5046608;28;20029;-56
2022/03/02 07:17:39;;;;;;;4.38;2.60;;;;;;;;;;5046143;28;20390;-55
2022/03/02 07:20:06;;;;;;;6.07;3.13;;;;;;;;;;5053128;28;20032;-56
2022/03/02 07:22:34;;;;;;;5.45;2.78;;;;;;;;;;5052043;28;20021;-56
2022/03/02 07:25:03;;;;;;;6.00;3.22;;;;;;;;;;5053238;28;20028;-55
2022/03/02 07:27:31;;;;;;;5.75;3.03;;;;;;;;;;5067158;28;20020;-56
2022/03/02 07:29:57;;;;;;;4.22;2.75;;;;;;;;;;5061508;28;20039;-56
2022/03/02 07:32:28;;;;;;;4.63;2.30;;;;;;;;;;5049171;28;20037;-55
2022/03/02 07:34:55;;;;;;;6.88;2.88;;;;;;;;;;5060737;28;20025;-55
2022/03/02 07:37:23;;;;;;;5.47;2.53;;;;;;;;;;5067991;28;20032;-56
2022/03/02 07:39:50;;;;;;;5.47;2.67;;;;;;;;;;5070227;28;20028;-56
2022/03/02 07:42:16;;;;;;;4.13;2.00;;;;;;;;;;5070930;28;20024;-55
2022/03/02 07:44:42;;;;;;;6.22;2.67;;;;;;;;;;5070832;28;20447;-56
2022/03/02 07:47:09;;;;;;;6.13;3.35;;;;;;;;;;5071186;28;20063;-56
2022/03/02 07:49:36;;;;;;;5.25;2.60;;;;;;;;;;5051876;28;20091;-55
2022/03/02 07:52:05;;;;;;;6.90;2.78;;;;;;;;;;5050873;28;20043;-56
2022/03/02 07:54:31;;;;;;;3.60;2.42;;;;;;;;;;5049235;28;20017;-57
2022/03/02 07:56:58;;;;;;;5.10;2.60;;;;;;;;;;5051088;28;20037;-56
2022/03/02 07:59:24;;;;;;;4.03;2.22;;;;;;;;;;5051959;28;20025;-57
2022/03/02 08:01:51;;;;;;;5.32;2.30;;;;;;;;;;5050585;28;20036;-56
2022/03/02 08:04:18;;;;;;;3.05;2.15;;;;;;;;;;5052829;28;20027;-56
2022/03/02 08:06:45;;;;;;;7.10;2.97;;;;;;;;;;5050760;28;20029;-56
2022/03/02 08:09:13;;;;;;;5.57;3.53;;;;;;;;;;5050888;28;20103;-56
2022/03/02 08:11:40;;;;;;;6.97;3.30;;;;;;;;;;5050329;28;20048;-56
2022/03/02 08:14:07;;;;;;;6.85;2.95;;;;;;;;;;5057316;28;20034;-56
2022/03/02 08:16:33;;;;;;;4.93;2.50;;;;;;;;;;5069635;28;20070;-56
2022/03/02 08:19:01;;;;;;;6.75;3.38;;;;;;;;;;5070298;28;20032;-57
2022/03/02 08:21:29;;;;;;;4.82;2.50;;;;;;;;;;5067637;28;20468;-57
2022/03/02 08:23:57;;;;;;;10.63;3.80;;;;;;;;;;5070032;28;20052;-56
2022/03/02 08:26:25;;;;;;;10.18;3.40;;;;;;;;;;5070306;28;20035;-56
2022/03/02 08:28:55;;;;;;;6.95;3.00;;;;;;;;;;5070158;28;20025;-57
2022/03/02 08:31:22;;;;;;;5.60;3.30;;;;;;;;;;5058426;28;20020;-55
2022/03/02 08:33:49;;;;;;;9.25;3.17;;;;;;;;;;5049842;28;20028;-56
2022/03/02 08:36:16;;;;;;;9.80;3.42;;;;;;;;;;5049877;28;20557;-56
2022/03/02 08:38:44;;;;;;;6.50;3.60;;;;;;;;;;5049938;28;20041;-55
2022/03/02 08:41:11;;;;;;;8.52;3.72;;;;;;;;;;5050652;28;20028;-56
2022/03/02 08:43:39;;;;;;;8.20;4.03;;;;;;;;;;5050684;28;20024;-55
2022/03/02 08:46:07;;;;;;;7.75;3.90;;;;;;;;;;5062762;28;20044;-56
2022/03/02 08:48:33;;;;;;;9.30;3.78;;;;;;;;;;5069362;28;20032;-55
2022/03/02 08:51:00;;;;;;;4.97;3.35;;;;;;;;;;5069558;28;20040;-56
2022/03/02 08:53:27;;;;;;;5.45;2.83;;;;;;;;;;5051704;28;20386;-56
2022/03/02 08:55:54;;;;;;;6.82;3.55;;;;;;;;;;5049508;28;20048;-56
2022/03/02 08:58:20;;;;;;;8.35;3.75;;;;;;;;;;5058693;28;20048;-56
2022/03/02 09:00:46;;;;;;;7.18;3.08;;;;;;;;;;5049368;28;20021;-56
2022/03/02 09:03:16;;;;;;;7.25;3.92;;;;;;;;;;5053295;28;20028;-56
2022/03/02 09:05:43;;;;;;;6.35;3.00;;;;;;;;;;5067525;28;20032;-56
2022/03/02 09:08:09;;;;;;;8.30;3.45;;;;;;;;;;5051119;28;20056;-56
2022/03/02 09:10:36;;;;;;;6.72;3.65;;;;;;;;;;5058941;28;20027;-56
2022/03/02 09:13:02;;;;;;;10.18;4.32;;;;;;;;;;5050457;28;20039;-57
2022/03/02 09:15:29;;;;;;;7.25;3.53;;;;;;;;;;5048054;28;20024;-57
2022/03/02 09:17:55;;;;;;;8.30;3.97;;;;;;;;;;5048123;28;20025;-57
2022/03/02 09:20:26;;;;;;;12.25;4.90;;;;;;;;;;5047981;28;20021;-57
2022/03/02 09:22:54;;;;;;;6.20;3.33;;;;;;;;;;5047898;28;20400;-57
2022/03/02 09:25:21;;;;;;;7.07;3.70;;;;;;;;;;5048252;28;20036;-57
2022/03/02 09:27:47;;;;;;;8.15;3.97;;;;;;;;;;5048246;28;20033;-57
2022/03/02 09:30:14;;;;;;;6.07;3.47;;;;;;;;;;5048405;28;20032;-57
2022/03/02 09:32:41;;;;;;;8.23;4.00;;;;;;;;;;5047718;28;20033;-57
2022/03/02 09:35:11;;;;;;;10.30;4.18;;;;;;;;;;5047619;28;20108;-57
2022/03/02 09:37:40;;;;;;;8.43;4.15;;;;;;;;;;5047755;28;20036;-56
2022/03/02 09:40:07;;;;;;;6.88;3.95;;;;;;;;;;5047611;28;20025;-56
2022/03/02 09:42:40;;;;;;;8.75;3.80;;;;;;;;;;5047340;28;20033;-56
2022/03/02 09:45:08;;;;;;;7.70;3.97;;;;;;;;;;5047629;28;20131;-57
2022/03/02 09:47:43;;;;;;;10.30;4.35;;;;;;;;;;5047398;28;20025;-56
2022/03/02 09:50:10;;;;;;;8.15;3.72;;;;;;;;;;5047314;28;20029;-57
2022/03/02 09:52:38;;;;;;;8.25;3.70;;;;;;;;;;5047069;28;20071;-56
2022/03/02 09:55:08;;;;;;;9.50;4.15;;;;;;;;;;5047377;28;20032;-56
2022/03/02 09:57:34;;;;;;;10.85;4.32;;;;;;;;;;5047110;28;20033;-57
2022/03/02 10:00:01;;;;;;;7.22;4.15;;;;;;;;;;5046999;28;20090;-56
2022/03/02 10:02:31;;;;;;;9.35;4.13;;;;;;;;;;5047456;28;20532;-57
2022/03/02 10:04:59;;;;;;;11.15;4.90;;;;;;;;;;5047072;28;20036;-57
2022/03/02 10:07:28;;;;;;;5.40;3.67;;;;;;;;;;5046883;28;20029;-57
2022/03/02 10:10:06;;;;;;;10.75;4.65;;;;;;;;;;5047204;28;20103;-57
2022/03/02 10:12:32;;;;;;;7.70;3.75;;;;;;;;;;5046633;28;20111;-57
2022/03/02 10:14:59;;;;;;;7.68;3.70;;;;;;;;;;5060360;28;20039;-56
2022/03/02 10:17:32;;;;;;;8.85;3.88;;;;;;;;;;5066899;28;20029;-57
2022/03/02 10:20:00;;;;;;;6.05;3.63;;;;;;;;;;5066604;28;20023;-56
2022/03/02 10:22:42;;;;;;;7.25;3.83;;;;;;;;;;5066871;28;20028;-56
2022/03/02 10:25:09;;;;;;;11.80;5.22;;;;;;;;;;5051823;28;20178;-57
2022/03/02 10:27:36;;;;;;;6.30;3.47;;;;;;;;;;5066520;28;20029;-57
2022/03/02 10:30:12;;;;;;;7.15;3.45;;;;;;;;;;5066957;28;20033;-57
2022/03/02 10:32:41;;;;;;;6.22;3.55;;;;;;;;;;5066479;28;20070;-57
2022/03/02 10:35:08;;;;;;;5.28;3.50;;;;;;;;;;5057825;28;20024;-57
2022/03/02 10:37:39;;;;;;;6.88;3.72;;;;;;;;;;5047780;28;20094;-57
2022/03/02 10:40:10;;;;;;;6.50;3.55;;;;;;;;;;5046762;28;20029;-57
2022/03/02 10:42:42;;;;;;;9.60;4.05;;;;;;;;;;5053461;28;20063;-57
2022/03/02 10:45:13;;;;;;;8.40;4.40;;;;;;;;;;5057508;28;20086;-57
2022/03/02 10:47:46;;;;;;;8.43;3.72;;;;;;;;;;5056994;28;20025;-57
2022/03/02 10:50:13;;;;;;;10.05;3.80;;;;;;;;;;5055968;28;20036;-57
2022/03/02 10:52:40;;;;;;;6.88;3.10;;;;;;;;;;5052044;28;20396;-57
2022/03/02 10:55:10;;;;;;;6.25;2.72;;;;;;;;;;5062377;28;20028;-57
2022/03/02 10:57:37;;;;;;;5.35;3.15;;;;;;;;;;5054564;28;20085;-57
2022/03/02 11:00:09;;;;;;;7.00;3.60;;;;;;;;;;5062060;28;20551;-57
2022/03/02 11:02:38;;;;;;;4.95;3.25;;;;;;;;;;5051967;28;20033;-57
2022/03/02 11:05:05;;;;;;;3.88;2.70;;;;;;;;;;5051069;28;20013;-57
2022/03/02 11:07:32;;;;;;;6.63;3.05;;;;;;;;;;5047379;28;20104;-57
2022/03/02 11:10:01;;;;;;;5.57;3.15;;;;;;;;;;5050406;28;20021;-57
2022/03/02 11:12:29;;;;;;;5.95;3.13;;;;;;;;;;5051323;28;20021;-57
2022/03/02 11:14:59;;;;;;;4.88;2.88;;;;;;;;;;5054543;28;20041;-56
2022/03/02 11:17:26;;;;;;;9.20;4.25;;;;;;;;;;5051949;28;20134;-57
2022/03/02 11:19:56;;;;;;;10.43;4.43;;;;;;;;;;5062359;28;20021;-57
2022/03/02 11:22:24;;;;;;;6.90;3.25;;;;;;;;;;5051625;28;20025;-57
2022/03/02 11:24:55;;;;;;;4.63;2.97;;;;;;;;;;5059129;28;20036;-57
2022/03/02 11:27:27;;;;;;;6.10;2.92;;;;;;;;;;5057044;28;20039;-57
2022/03/02 11:30:13;;;;;;;6.53;3.72;;;;;;;;;;5065498;28;20036;-57
2022/03/02 11:32:40;;;;;;;5.93;3.30;;;;;;;;;;5053787;28;20033;-57
2022/03/02 11:35:09;;;;;;;4.72;2.85;;;;;;;;;;5051716;28;20147;-57
2022/03/02 11:37:36;;;;;;;5.45;3.10;;;;;;;;;;5058826;28;20028;-57
2022/03/02 11:40:05;;;;;;;3.47;2.58;;;;;;;;;;5071677;28;20028;-57
2022/03/02 11:42:32;;;;;;;6.43;3.17;;;;;;;;;;5056244;28;20037;-57
2022/03/02 11:44:59;;;;;;;5.63;2.95;;;;;;;;;;5071350;28;20426;-57
2022/03/02 11:47:33;;;;;;;6.22;3.15;;;;;;;;;;5065800;28;20036;-57
2022/03/02 11:49:59;;;;;;;10.77;3.85;;;;;;;;;;5062282;28;20547;-57
2022/03/02 11:52:25;;;;;;;7.95;3.60;;;;;;;;;;5072291;28;20508;-57
2022/03/02 11:54:53;;;;;;;6.45;2.97;;;;;;;;;;5071819;28;20052;-57
2022/03/02 11:57:20;;;;;;;8.50;3.95;;;;;;;;;;5051363;28;20510;-57
2022/03/02 11:59:47;;;;;;;6.93;3.17;;;;;;;;;;5050869;28;20025;-56
2022/03/02 12:02:20;;;;;;;6.00;3.55;;;;;;;;;;5065442;28;20029;-57
2022/03/02 12:04:59;;;;;;;8.50;3.63;;;;;;;;;;5078602;28;20032;-57
2022/03/02 12:07:26;;;;;;;6.97;3.28;;;;;;;;;;5059552;28;20021;-57
2022/03/02 12:09:52;;;;;;;7.18;3.80;;;;;;;;;;5070620;28;20052;-57
2022/03/02 12:12:22;;;;;;;5.63;3.20;;;;;;;;;;5056221;28;20536;-57
2022/03/02 12:14:56;;;;;;;6.40;3.92;;;;;;;;;;5050790;28;20033;-57
2022/03/02 12:17:36;;;;;;;6.77;4.00;;;;;;;;;;5050775;28;20028;-57
2022/03/02 12:20:07;;;;;;;6.78;3.30;;;;;;;;;;5060694;28;20653;-57
2022/03/02 12:22:37;;;;;;;5.53;3.38;;;;;;;;;;5058393;28;20577;-57
2022/03/02 12:25:05;;;;;;;7.30;3.65;;;;;;;;;;5069692;28;20032;-57
2022/03/02 12:27:31;;;;;;;5.80;3.65;;;;;;;;;;5064656;28;20028;-57
2022/03/02 12:30:01;;;;;;;5.93;3.28;;;;;;;;;;5050353;28;20392;-57
2022/03/02 12:32:28;;;;;;;4.90;2.83;;;;;;;;;;5090472;28;20047;-57
2022/03/02 12:34:55;;;;;;;3.33;2.33;;;;;;;;;;5058350;28;20408;-57
2022/03/02 12:37:21;;;;;;;5.80;2.90;;;;;;;;;;5067543;28;20032;-57
2022/03/02 12:39:48;;;;;;;5.75;3.10;;;;;;;;;;5065298;28;20031;-58
2022/03/02 12:42:16;;;;;;;4.07;2.70;;;;;;;;;;5050650;28;20024;-57
2022/03/02 12:44:44;;;;;;;4.93;3.00;;;;;;;;;;5050223;28;20027;-57
2022/03/02 12:47:12;;;;;;;7.70;3.05;;;;;;;;;;5050570;28;20029;-57
2022/03/02 12:49:39;;;;;;;5.75;3.03;;;;;;;;;;5063780;28;20046;-58
2022/03/02 12:52:06;;;;;;;4.10;2.55;;;;;;;;;;5055745;28;20029;-58
2022/03/02 12:54:33;;;;;;;4.43;2.55;;;;;;;;;;5054094;28;20057;-58
2022/03/02 12:57:02;;;;;;;4.75;2.90;;;;;;;;;;5063177;28;20039;-58
2022/03/02 12:59:29;;;;;;;5.57;2.55;;;;;;;;;;5059356;28;20029;-58
2022/03/02 13:01:55;;;;;;;4.72;2.70;;;;;;;;;;5050452;28;20423;-57
2022/03/02 13:04:47;;;;;;;4.30;2.70;;;;;;;;;;5066754;28;20039;-58
2022/03/02 13:07:16;;;;;;;4.78;2.53;;;;;;;;;;5083353;28;20071;-57
2022/03/02 13:09:48;;;;;;;4.85;2.67;;;;;;;;;;5080962;28;20042;-57
2022/03/02 13:12:34;;;;;;;4.40;2.72;;;;;;;;;;5081890;28;20020;-57
2022/03/02 13:15:01;;;;;;;4.80;2.60;;;;;;;;;;5077658;28;20090;-58
2022/03/02 13:17:28;;;;;;;2.65;2.17;;;;;;;;;;5081700;28;20095;-57
2022/03/02 13:19:58;;;;;;;4.10;2.45;;;;;;;;;;5080256;28;20047;-57
2022/03/02 13:22:24;;;;;;;3.20;2.10;;;;;;;;;;5064259;28;20035;-58
2022/03/02 13:24:53;;;;;;;2.50;1.90;;;;;;;;;;5057622;28;20029;-58
2022/03/02 13:27:21;;;;;;;2.85;1.83;;;;;;;;;;5063403;28;21077;-57
2022/03/02 13:29:51;;;;;;;2.70;1.90;;;;;;;;;;5054217;28;20031;-57
2022/03/02 13:32:18;;;;;;;2.75;2.00;;;;;;;;;;5061798;28;20424;-57
2022/03/02 13:35:02;;;;;;;4.13;2.55;;;;;;;;;;5062502;28;20028;-57
2022/03/02 13:37:28;;;;;;;;;;;;;;;;;;5056779;28;20029;-57
2022/03/02 13:39:54;;;;;;;6.70;2.60;;;;;;;;;;5057523;28;19939;-57
2022/03/02 13:42:22;;;;;;;3.67;1.90;;;;;;;;;;5057202;28;20028;-55
2022/03/02 13:44:49;;;;;;;5.03;2.53;;;;;;;;;;5054655;28;20052;-58
2022/03/02 13:47:17;;;;;;;7.57;3.22;;;;;;;;;;5053870;28;20028;-57
2022/03/02 13:49:49;;;;;;;6.10;3.50;;;;;;;;;;5047928;28;20032;-57
2022/03/02 13:52:41;;;;;;;6.50;3.38;;;;;;;;;;5055053;28;20029;-58
2022/03/02 13:55:10;;;;;;;5.22;3.35;;;;;;;;;;5059678;28;20120;-58
2022/03/02 13:57:38;;;;;;;5.00;2.65;;;;;;;;;;5053093;28;20028;-57
2022/03/02 14:00:19;;;;;;;5.00;3.22;;;;;;;;;;5050969;28;20056;-58
2022/03/02 14:02:46;;;;;;;6.22;3.42;;;;;;;;;;5060771;28;20028;-58
2022/03/02 14:05:12;;;;;;;4.93;2.88;;;;;;;;;;5048267;28;20033;-57
2022/03/02 14:07:39;;;;;;;5.45;2.97;;;;;;;;;;5059009;28;20480;-58
2022/03/02 14:10:11;;;;;;;5.53;3.53;;;;;;;;;;5052794;28;20112;-58
2022/03/02 14:12:57;;;;;;;6.07;3.53;;;;;;;;;;5071129;28;20031;-57
2022/03/02 14:15:26;;;;;;;4.28;3.05;;;;;;;;;;5064549;28;20028;-58
2022/03/02 14:17:52;;;;;;;4.43;2.90;;;;;;;;;;5057190;28;20223;-57
2022/03/02 14:20:26;;;;;;;4.50;2.78;;;;;;;;;;5054105;28;20028;-58
2022/03/02 14:22:59;;;;;;;5.38;2.97;;;;;;;;;;5067330;28;20112;-57
2022/03/02 14:25:25;;;;;;;4.32;2.70;;;;;;;;;;5065688;28;20028;-58
2022/03/02 14:28:06;;;;;;;6.95;3.72;;;;;;;;;;5047087;28;20515;-57
2022/03/02 14:30:34;;;;;;;5.38;3.00;;;;;;;;;;5052076;28;20487;-58
2022/03/02 14:33:00;;;;;;;4.45;2.67;;;;;;;;;;5063959;28;20029;-57
2022/03/02 14:35:28;;;;;;;6.10;3.13;;;;;;;;;;5055513;28;20857;-57
2022/03/02 14:37:57;;;;;;;6.20;3.20;;;;;;;;;;5057032;28;20052;-57
2022/03/02 14:40:29;;;;;;;5.75;4.07;;;;;;;;;;5063268;28;20039;-57
2022/03/02 14:42:55;;;;;;;7.43;4.35;;;;;;;;;;5062079;28;20029;-58
2022/03/02 14:45:24;;;;;;;7.10;3.83;;;;;;;;;;5052073;28;20028;-57